Time;durP1;ratioP1;P1;durP2;ratioP2;P2;SDS_P1;SDS_P2;PMS_P1;PMS_P2;Temp;Humidity;BMP_temperature;BMP_pressure;BME280_temperature;BME280_humidity;BME280_pressure;Samples;Min_cycle;Max_cycle;Signal;HPM_P1;HPM_P2
2023/03/07 00:02:23;;;;;;;18.92;13.63;;;4.60;62.00;;;;;;4974364;28;20362;-56
2023/03/07 00:04:48;;;;;;;16.85;12.57;;;4.50;62.00;;;;;;4973388;28;20026;-54
2023/03/07 00:07:14;;;;;;;17.48;12.48;;;4.50;62.00;;;;;;4974213;28;20126;-68
2023/03/07 00:09:41;;;;;;;16.17;11.68;;;4.60;62.10;;;;;;4973698;28;20018;-67
2023/03/07 00:12:07;;;;;;;13.52;10.95;;;4.50;62.00;;;;;;4961233;28;20023;-67
2023/03/07 00:14:33;;;;;;;16.77;12.15;;;4.50;62.00;;;;;;4972576;28;20250;-66
2023/03/07 00:16:58;;;;;;;20.88;12.23;;;4.50;62.00;;;;;;4974182;28;20121;-67
2023/03/07 00:19:24;;;;;;;16.40;11.85;;;4.50;62.10;;;;;;4974938;28;20109;-69
2023/03/07 00:21:50;;;;;;;17.70;12.23;;;4.50;62.10;;;;;;4973823;28;20086;-62
2023/03/07 00:24:15;;;;;;;15.75;11.27;;;4.40;62.20;;;;;;4972886;28;20493;-62
2023/03/07 00:26:41;;;;;;;18.10;12.55;;;4.40;62.20;;;;;;4974181;28;20031;-61
2023/03/07 00:29:08;;;;;;;17.05;12.40;;;4.40;62.80;;;;;;4971186;28;20022;-60
2023/03/07 00:31:35;;;;;;;15.85;12.48;;;4.40;62.20;;;;;;4973941;28;20109;-62
2023/03/07 00:34:01;;;;;;;14.52;11.02;;;4.40;62.20;;;;;;4972828;28;20031;-62
2023/03/07 00:36:27;;;;;;;13.30;10.85;;;4.30;62.20;;;;;;4978011;28;20032;-63
2023/03/07 00:38:53;;;;;;;15.52;11.93;;;4.30;62.20;;;;;;4974319;28;20109;-63
2023/03/07 00:41:21;;;;;;;14.32;11.25;;;4.20;62.30;;;;;;4973712;28;20097;-61
2023/03/07 00:43:47;;;;;;;15.48;11.70;;;4.20;62.30;;;;;;4969383;28;20047;-61
2023/03/07 00:46:14;;;;;;;16.17;13.10;;;4.20;62.50;;;;;;4976813;28;20026;-60
2023/03/07 00:48:40;;;;;;;15.35;11.07;;;4.10;62.40;;;;;;4973200;28;20034;-61
2023/03/07 00:51:08;;;;;;;17.02;13.05;;;4.10;62.50;;;;;;4973207;28;20049;-63
2023/03/07 00:53:34;;;;;;;14.48;12.10;;;4.10;62.50;;;;;;4994844;28;20379;-63
2023/03/07 00:56:02;;;;;;;17.08;12.02;;;4.10;62.50;;;;;;4973268;28;20041;-63
2023/03/07 00:58:30;;;;;;;17.40;12.60;;;4.10;62.50;;;;;;4972789;28;20094;-64
2023/03/07 01:00:56;;;;;;;16.00;12.38;;;4.10;62.60;;;;;;4973170;28;20075;-63
2023/03/07 01:03:23;;;;;;;18.00;12.75;;;4.00;62.50;;;;;;4965632;28;20030;-63
2023/03/07 01:05:49;;;;;;;15.68;12.60;;;4.00;62.40;;;;;;4968399;28;20109;-56
2023/03/07 01:08:16;;;;;;;14.85;12.05;;;4.00;62.50;;;;;;4977392;28;20030;-56
2023/03/07 01:10:42;;;;;;;14.05;11.85;;;4.00;62.50;;;;;;4973213;28;20034;-63
2023/03/07 01:13:08;;;;;;;15.00;12.00;;;4.00;62.50;;;;;;4972176;28;20077;-63
2023/03/07 01:15:34;;;;;;;13.45;11.10;;;4.00;62.50;;;;;;4973241;28;20042;-63
2023/03/07 01:18:00;;;;;;;18.35;14.10;;;3.90;62.40;;;;;;4973775;28;20105;-63
2023/03/07 01:20:31;;;;;;;16.98;13.00;;;3.90;62.40;;;;;;4972608;28;20062;-63
2023/03/07 01:22:57;;;;;;;17.15;12.52;;;3.90;62.90;;;;;;4975081;28;20113;-63
2023/03/07 01:25:22;;;;;;;14.85;11.05;;;4.00;62.40;;;;;;4971890;28;20027;-64
2023/03/07 01:27:51;;;;;;;15.38;10.57;;;4.00;62.30;;;;;;4972172;28;20034;-66
2023/03/07 01:30:16;;;;;;;15.88;11.32;;;4.00;62.30;;;;;;4965577;28;20035;-69
2023/03/07 01:32:42;;;;;;;13.23;10.80;;;4.00;62.20;;;;;;4969517;28;20027;-66
2023/03/07 01:35:08;;;;;;;12.95;10.50;;;4.00;62.20;;;;;;4968969;28;20034;-68
2023/03/07 01:37:34;;;;;;;16.13;11.30;;;4.10;62.10;;;;;;4980898;28;20031;-55
2023/03/07 01:39:59;;;;;;;18.02;13.02;;;4.10;62.00;;;;;;4973150;28;20114;-55
2023/03/07 01:42:30;;;;;;;20.58;13.73;;;4.10;61.90;;;;;;4972461;28;20121;-54
2023/03/07 01:45:24;;;;;;;22.58;13.93;;;4.10;61.80;;;;;;4974542;28;20043;-54
2023/03/07 01:47:50;;;;;;;19.85;14.70;;;4.10;61.80;;;;;;4969955;28;20536;-63
2023/03/07 01:50:17;;;;;;;23.13;15.88;;;4.10;61.60;;;;;;4970375;28;20043;-62
2023/03/07 01:52:47;;;;;;;23.20;15.48;;;4.10;61.70;;;;;;4970179;28;20351;-62
2023/03/07 01:55:20;;;;;;;21.38;14.98;;;4.10;61.60;;;;;;4971035;28;20023;-62
2023/03/07 01:57:48;;;;;;;19.55;14.35;;;4.10;61.50;;;;;;4972280;28;20042;-62
2023/03/07 02:00:24;;;;;;;21.63;14.90;;;4.10;61.50;;;;;;4972584;28;20042;-63
2023/03/07 02:02:58;;;;;;;19.17;14.18;;;4.10;61.30;;;;;;4968318;28;20091;-63
2023/03/07 02:05:33;;;;;;;21.92;14.23;;;4.10;61.30;;;;;;4971486;28;20027;-62
2023/03/07 02:08:01;;;;;;;20.25;14.13;;;4.10;61.30;;;;;;4969770;28;20027;-63
2023/03/07 02:10:29;;;;;;;20.85;13.70;;;4.10;61.20;;;;;;4975196;28;20058;-63
2023/03/07 02:12:55;;;;;;;21.23;13.68;;;4.10;61.20;;;;;;4969835;28;20027;-53
2023/03/07 02:15:21;;;;;;;19.48;13.55;;;4.10;61.20;;;;;;4980389;28;20363;-53
2023/03/07 02:17:47;;;;;;;18.00;13.65;;;4.10;61.00;;;;;;4973719;28;20037;-63
2023/03/07 02:20:13;;;;;;;21.17;13.75;;;4.20;61.00;;;;;;4985149;28;20114;-64
2023/03/07 02:22:40;;;;;;;19.50;14.13;;;4.20;61.00;;;;;;4972370;28;20051;-63
2023/03/07 02:25:21;;;;;;;21.15;13.70;;;4.20;61.00;;;;;;4975962;28;20034;-63
2023/03/07 02:27:50;;;;;;;20.00;14.00;;;4.20;60.90;;;;;;4976359;28;20019;-58
2023/03/07 02:30:16;;;;;;;19.48;13.35;;;4.20;60.90;;;;;;4978483;28;20039;-53
2023/03/07 02:32:41;;;;;;;19.83;13.18;;;4.20;60.90;;;;;;4974958;28;20038;-62
2023/03/07 02:35:19;;;;;;;18.50;13.15;;;4.10;60.80;;;;;;4978909;28;20030;-63
2023/03/07 02:37:48;;;;;;;17.73;12.98;;;4.20;60.80;;;;;;4975612;28;20027;-62
2023/03/07 02:40:17;;;;;;;19.15;12.88;;;4.20;60.80;;;;;;4980563;28;20104;-61
2023/03/07 02:42:43;;;;;;;16.13;12.18;;;4.20;60.80;;;;;;4967252;28;20082;-53
2023/03/07 02:45:16;;;;;;;16.02;11.73;;;4.20;60.70;;;;;;4979527;28;20027;-58
2023/03/07 02:47:42;;;;;;;16.30;10.77;;;4.20;61.30;;;;;;4984840;28;20449;-63
2023/03/07 02:50:09;;;;;;;19.48;12.38;;;4.30;60.70;;;;;;4970754;28;20547;-63
2023/03/07 02:52:35;;;;;;;17.52;11.90;;;4.30;60.60;;;;;;4975820;28;20113;-62
2023/03/07 02:55:00;;;;;;;20.77;13.60;;;4.30;60.50;;;;;;4974083;28;20122;-62
2023/03/07 02:57:26;;;;;;;21.45;13.82;;;4.40;60.60;;;;;;4973642;28;20493;-62
2023/03/07 02:59:52;;;;;;;27.13;15.80;;;4.40;60.50;;;;;;4975634;28;20034;-62
2023/03/07 03:02:18;;;;;;;24.58;16.02;;;4.40;60.50;;;;;;4975328;28;20031;-68
2023/03/07 03:04:43;;;;;;;23.20;15.35;;;4.50;60.40;;;;;;4975773;28;20041;-67
2023/03/07 03:07:09;;;;;;;22.02;15.95;;;4.50;61.10;;;;;;4972410;28;20039;-67
2023/03/07 03:09:35;;;;;;;19.90;14.65;;;4.50;60.40;;;;;;4978171;28;20035;-68
2023/03/07 03:12:01;;;;;;;23.83;14.85;;;4.60;60.30;;;;;;4974996;28;20027;-61
2023/03/07 03:14:26;;;;;;;22.15;13.73;;;4.60;60.50;;;;;;4974929;28;20035;-61
2023/03/07 03:16:52;;;;;;;21.65;13.77;;;4.60;60.40;;;;;;4974687;28;20039;-63
2023/03/07 03:19:18;;;;;;;19.33;12.80;;;4.60;60.20;;;;;;4977821;28;20035;-63
2023/03/07 03:21:43;;;;;;;23.08;13.35;;;4.70;60.20;;;;;;4975154;28;20042;-66
2023/03/07 03:24:10;;;;;;;20.48;13.75;;;4.70;60.20;;;;;;4973609;28;20114;-66
2023/03/07 03:26:37;;;;;;;17.48;11.98;;;4.70;60.10;;;;;;4973430;28;20477;-62
2023/03/07 03:29:04;;;;;;;15.73;10.35;;;4.70;60.10;;;;;;4975386;28;20031;-62
2023/03/07 03:31:30;;;;;;;13.32;9.70;;;4.70;60.00;;;;;;4975045;28;20037;-63
2023/03/07 03:33:57;;;;;;;12.30;9.65;;;4.70;60.00;;;;;;4970647;28;20130;-62
2023/03/07 03:36:24;;;;;;;12.05;9.10;;;4.70;60.10;;;;;;4974333;28;20618;-57
2023/03/07 03:38:57;;;;;;;12.82;8.52;;;4.70;60.10;;;;;;4975293;28;20030;-56
2023/03/07 03:41:24;;;;;;;12.80;9.45;;;4.70;60.10;;;;;;4971931;28;20065;-63
2023/03/07 03:43:50;;;;;;;11.98;9.23;;;4.80;60.20;;;;;;4964611;28;20045;-64
2023/03/07 03:46:18;;;;;;;12.38;8.73;;;4.70;60.10;;;;;;4971311;28;20041;-58
2023/03/07 03:48:49;;;;;;;12.73;8.93;;;4.70;60.10;;;;;;4974604;28;20377;-57
2023/03/07 03:51:14;;;;;;;10.63;8.15;;;4.70;60.10;;;;;;4974112;28;20446;-57
2023/03/07 03:53:41;;;;;;;13.80;8.93;;;4.70;60.20;;;;;;4974682;28;20043;-53
2023/03/07 03:56:18;;;;;;;12.20;8.20;;;4.70;60.10;;;;;;4973159;28;20382;-61
2023/03/07 03:58:52;;;;;;;11.65;8.70;;;4.70;60.20;;;;;;4966572;28;20117;-61
2023/03/07 04:01:20;;;;;;;11.25;8.30;;;4.70;60.20;;;;;;4972109;28;20454;-67
2023/03/07 04:03:48;;;;;;;9.88;7.50;;;4.70;60.10;;;;;;4973885;28;20039;-67
2023/03/07 04:06:20;;;;;;;9.80;7.40;;;4.70;60.10;;;;;;4963818;28;20069;-55
2023/03/07 04:08:46;;;;;;;12.60;8.40;;;4.70;60.10;;;;;;4983688;28;20449;-57
2023/03/07 04:11:12;;;;;;;9.38;7.55;;;4.60;60.10;;;;;;4974220;28;20050;-61
2023/03/07 04:13:37;;;;;;;11.52;7.72;;;4.60;60.10;;;;;;4977165;28;20444;-61
2023/03/07 04:16:04;;;;;;;9.70;8.00;;;4.60;60.10;;;;;;4969073;28;20066;-53
2023/03/07 04:18:30;;;;;;;10.70;8.02;;;4.60;60.20;;;;;;4975006;28;20037;-54
2023/03/07 04:20:56;;;;;;;11.43;8.15;;;4.60;60.20;;;;;;4973720;28;20027;-62
2023/03/07 04:23:23;;;;;;;12.18;8.13;;;4.60;60.20;;;;;;4973611;28;20096;-63
2023/03/07 04:25:54;;;;;;;11.65;8.60;;;4.60;60.20;;;;;;4973324;28;20039;-63
2023/03/07 04:28:21;;;;;;;11.85;8.45;;;4.60;60.30;;;;;;4973211;28;20331;-63
2023/03/07 04:30:48;;;;;;;10.02;7.63;;;4.60;60.40;;;;;;4973417;28;20424;-60
2023/03/07 04:33:15;;;;;;;10.80;8.07;;;4.60;60.30;;;;;;4972918;28;20026;-62
2023/03/07 04:35:41;;;;;;;12.80;8.45;;;4.60;60.20;;;;;;4972929;28;20030;-61
2023/03/07 04:38:08;;;;;;;12.60;8.68;;;4.60;60.20;;;;;;4974582;28;20169;-61
2023/03/07 04:40:34;;;;;;;15.20;9.55;;;4.50;60.20;;;;;;4974186;28;20075;-62
2023/03/07 04:43:00;;;;;;;15.07;10.20;;;4.50;60.20;;;;;;4973437;28;20030;-61
2023/03/07 04:45:26;;;;;;;15.98;10.27;;;4.50;60.40;;;;;;4973088;28;20034;-61
2023/03/07 04:47:51;;;;;;;14.75;10.90;;;4.50;60.50;;;;;;4972494;28;20492;-56
2023/03/07 04:50:18;;;;;;;16.00;10.32;;;4.50;60.50;;;;;;4975311;28;20033;-53
2023/03/07 04:52:43;;;;;;;14.20;10.32;;;4.50;60.50;;;;;;4962764;28;20037;-62
2023/03/07 04:55:10;;;;;;;15.20;10.00;;;4.60;60.70;;;;;;4965748;28;20035;-62
2023/03/07 04:57:35;;;;;;;13.48;8.55;;;4.60;60.70;;;;;;4967820;28;20043;-62
2023/03/07 05:00:02;;;;;;;11.55;9.10;;;4.60;60.60;;;;;;4963330;28;20030;-62
2023/03/07 05:02:28;;;;;;;11.40;8.82;;;4.60;60.60;;;;;;4973334;28;20023;-62
2023/03/07 05:04:53;;;;;;;14.82;9.77;;;4.70;60.70;;;;;;4973339;28;20478;-61
2023/03/07 05:07:19;;;;;;;14.50;10.77;;;4.70;60.90;;;;;;4971048;28;20042;-63
2023/03/07 05:09:44;;;;;;;18.48;11.77;;;4.80;60.80;;;;;;4976907;28;20665;-63
2023/03/07 05:12:10;;;;;;;19.75;12.77;;;4.80;60.80;;;;;;4974507;28;20038;-62
2023/03/07 05:14:36;;;;;;;23.90;16.48;;;4.90;60.90;;;;;;4977041;28;20101;-61
2023/03/07 05:17:01;;;;;;;22.77;15.80;;;4.90;60.80;;;;;;4974953;28;20488;-56
2023/03/07 05:19:28;;;;;;;27.73;17.48;;;5.00;60.80;;;;;;4977385;28;20113;-57
2023/03/07 05:21:53;;;;;;;29.10;18.52;;;5.00;60.80;;;;;;4973892;28;20031;-63
2023/03/07 05:24:19;;;;;;;27.65;17.20;;;5.10;60.80;;;;;;4971857;28;20038;-63
2023/03/07 05:26:45;;;;;;;27.10;16.30;;;5.10;60.80;;;;;;4972647;28;20034;-63
2023/03/07 05:29:10;;;;;;;23.02;15.25;;;5.10;60.70;;;;;;4972730;28;20066;-63
2023/03/07 05:31:36;;;;;;;23.98;14.15;;;5.20;60.90;;;;;;4974116;28;20031;-62
2023/03/07 05:34:01;;;;;;;19.63;13.70;;;5.20;60.90;;;;;;4972640;28;20482;-62
2023/03/07 05:36:27;;;;;;;18.67;12.60;;;5.20;60.80;;;;;;4975522;28;20026;-63
2023/03/07 05:38:55;;;;;;;17.08;12.13;;;5.30;60.90;;;;;;4971725;28;20138;-62
2023/03/07 05:41:21;;;;;;;15.95;12.10;;;5.30;61.00;;;;;;4980448;28;20066;-63
2023/03/07 05:43:47;;;;;;;13.77;9.95;;;5.40;61.10;;;;;;4964765;28;20039;-63
2023/03/07 05:46:12;;;;;;;16.25;11.85;;;5.40;61.20;;;;;;4973992;28;20481;-62
2023/03/07 05:48:38;;;;;;;16.70;11.35;;;5.40;61.30;;;;;;4971179;28;20031;-63
2023/03/07 05:51:04;;;;;;;19.08;13.23;;;5.50;61.40;;;;;;4970868;28;20162;-54
2023/03/07 05:53:30;;;;;;;16.70;12.23;;;5.60;61.40;;;;;;4972001;28;20054;-57
2023/03/07 05:55:56;;;;;;;18.85;13.68;;;5.60;61.70;;;;;;4971891;28;20027;-63
2023/03/07 05:58:22;;;;;;;18.20;13.82;;;5.70;61.70;;;;;;4972833;28;20117;-63
2023/03/07 06:00:48;;;;;;;22.42;13.88;;;5.80;61.90;;;;;;4969835;28;20030;-67
2023/03/07 06:03:14;;;;;;;18.67;15.02;;;6.00;61.80;;;;;;4976746;28;20030;-68
2023/03/07 06:05:42;;;;;;;16.10;13.85;;;6.10;61.80;;;;;;4990478;28;20086;-65
2023/03/07 06:08:08;;;;;;;21.70;15.70;;;6.30;61.70;;;;;;4980589;28;20373;-61
2023/03/07 06:10:34;;;;;;;19.90;14.82;;;6.40;61.40;;;;;;4974822;28;20023;-61
2023/03/07 06:12:59;;;;;;;18.25;15.13;;;6.60;61.40;;;;;;4974624;28;20023;-61
2023/03/07 06:15:25;;;;;;;21.30;15.23;;;6.70;61.10;;;;;;4974736;28;20051;-62
2023/03/07 06:17:51;;;;;;;19.15;14.95;;;6.90;61.00;;;;;;4977123;28;20085;-61
2023/03/07 06:20:19;;;;;;;17.80;14.55;;;7.10;60.90;;;;;;4971567;28;20837;-61
2023/03/07 06:22:46;;;;;;;18.00;12.98;;;7.20;60.70;;;;;;4966657;28;20149;-61
2023/03/07 06:25:14;;;;;;;17.08;12.40;;;7.30;60.50;;;;;;4961151;28;20030;-61
2023/03/07 06:27:40;;;;;;;17.25;12.70;;;7.50;60.60;;;;;;4963009;28;20065;-61
2023/03/07 06:30:08;;;;;;;16.25;12.80;;;7.60;60.60;;;;;;4966154;28;20031;-67
2023/03/07 06:32:33;;;;;;;15.15;11.70;;;7.90;60.70;;;;;;4963867;28;20118;-67
2023/03/07 06:34:59;;;;;;;15.23;11.10;;;8.10;60.50;;;;;;4961374;28;20041;-67
2023/03/07 06:37:25;;;;;;;17.23;11.70;;;8.30;60.30;;;;;;4970302;28;20049;-61
2023/03/07 06:39:52;;;;;;;16.90;11.50;;;8.40;60.20;;;;;;4970788;28;20470;-60
2023/03/07 06:42:17;;;;;;;15.02;10.90;;;8.40;60.00;;;;;;4971317;28;20059;-62
2023/03/07 06:44:43;;;;;;;14.98;11.02;;;8.40;60.00;;;;;;4973706;28;20442;-61
2023/03/07 06:47:09;;;;;;;15.05;11.02;;;8.30;60.30;;;;;;4964422;28;20536;-62
2023/03/07 06:49:34;;;;;;;13.63;10.13;;;8.30;60.30;;;;;;4960487;28;20479;-61
2023/03/07 06:52:00;;;;;;;13.23;9.52;;;8.20;60.50;;;;;;4973595;28;20482;-61
2023/03/07 06:54:26;;;;;;;11.82;9.10;;;8.10;60.80;;;;;;4964420;28;20109;-60
2023/03/07 06:56:51;;;;;;;11.07;8.38;;;8.10;61.00;;;;;;4974310;28;20030;-61
2023/03/07 06:59:18;;;;;;;12.35;9.60;;;8.00;61.30;;;;;;4975925;28;20030;-59
2023/03/07 07:01:44;;;;;;;14.35;10.05;;;7.80;61.70;;;;;;4965273;28;20387;-61
2023/03/07 07:04:10;;;;;;;11.98;9.45;;;7.80;62.10;;;;;;4976646;28;20038;-58
2023/03/07 07:06:36;;;;;;;15.77;11.27;;;7.70;62.30;;;;;;4974539;28;20042;-57
2023/03/07 07:09:04;;;;;;;17.25;12.77;;;7.70;63.20;;;;;;4965264;28;20034;-61
2023/03/07 07:11:30;;;;;;;16.58;12.25;;;7.70;62.90;;;;;;4965058;28;20222;-60
2023/03/07 07:13:55;;;;;;;16.38;11.98;;;7.70;63.10;;;;;;4966059;28;20042;-60
2023/03/07 07:16:22;;;;;;;16.90;12.23;;;7.70;63.20;;;;;;4964062;28;20035;-61
2023/03/07 07:18:50;;;;;;;15.57;11.82;;;7.70;63.30;;;;;;4961206;28;20098;-60
2023/03/07 07:21:16;;;;;;;16.15;11.75;;;7.70;63.50;;;;;;4966353;28;20034;-58
2023/03/07 07:23:42;;;;;;;21.00;13.02;;;7.80;63.60;;;;;;4970672;28;20043;-59
2023/03/07 07:26:08;;;;;;;20.60;13.15;;;7.80;63.50;;;;;;4972817;28;20071;-59
2023/03/07 07:28:33;;;;;;;17.98;12.80;;;7.90;63.50;;;;;;4961548;28;20039;-60
2023/03/07 07:30:59;;;;;;;22.20;13.52;;;7.90;63.50;;;;;;4957970;28;20882;-59
2023/03/07 07:33:25;;;;;;;20.27;13.93;;;7.90;63.70;;;;;;4961431;28;20630;-61
2023/03/07 07:35:51;;;;;;;19.08;13.23;;;8.00;63.80;;;;;;4960161;28;20043;-60
2023/03/07 07:38:16;;;;;;;18.58;12.18;;;8.10;63.80;;;;;;4962910;28;20088;-61
2023/03/07 07:40:43;;;;;;;16.77;12.45;;;8.10;63.50;;;;;;4962224;28;20474;-61
2023/03/07 07:43:14;;;;;;;21.23;13.57;;;8.20;63.50;;;;;;4957957;28;20114;-60
2023/03/07 07:45:40;;;;;;;17.87;11.50;;;8.20;63.60;;;;;;4964956;28;20048;-62
2023/03/07 07:48:05;;;;;;;19.75;12.07;;;8.30;63.60;;;;;;4958374;28;20034;-63
2023/03/07 07:50:31;;;;;;;23.02;14.10;;;8.30;63.40;;;;;;4960993;28;20050;-61
2023/03/07 07:52:56;;;;;;;27.92;16.65;;;8.40;63.30;;;;;;4962044;28;20031;-60
2023/03/07 07:55:23;;;;;;;24.70;15.45;;;8.40;63.30;;;;;;4958289;28;20050;-61
2023/03/07 07:57:50;;;;;;;24.15;15.02;;;8.40;63.20;;;;;;4951966;28;20068;-58
2023/03/07 08:00:20;;;;;;;20.42;13.13;;;8.40;63.10;;;;;;4961376;28;20852;-60
2023/03/07 08:02:49;;;;;;;19.17;13.45;;;8.40;63.30;;;;;;4961300;28;20077;-62
2023/03/07 08:05:17;;;;;;;16.13;11.32;;;8.40;63.40;;;;;;4959805;28;20047;-60
2023/03/07 08:07:43;;;;;;;14.68;10.27;;;8.50;63.50;;;;;;4953961;28;20121;-59
2023/03/07 08:10:14;;;;;;;13.40;9.98;;;8.50;63.40;;;;;;4954453;28;20026;-61
2023/03/07 08:12:43;;;;;;;14.50;10.20;;;8.60;63.60;;;;;;4954479;28;20120;-61
2023/03/07 08:15:10;;;;;;;11.52;8.57;;;8.70;63.50;;;;;;4957415;28;20055;-57
2023/03/07 08:17:36;;;;;;;11.05;8.23;;;8.70;63.40;;;;;;4947430;28;20089;-61
2023/03/07 08:20:07;;;;;;;13.55;9.30;;;8.70;64.40;;;;;;4950408;28;20042;-60
2023/03/07 08:22:33;;;;;;;11.73;8.60;;;8.70;63.60;;;;;;4952440;28;20065;-60
2023/03/07 08:24:59;;;;;;;11.57;9.07;;;8.60;63.90;;;;;;4957188;28;20042;-58
2023/03/07 08:27:27;;;;;;;11.30;8.68;;;8.60;64.10;;;;;;4955224;28;20031;-59
2023/03/07 08:29:53;;;;;;;9.38;7.53;;;8.60;64.10;;;;;;4956277;28;20065;-59
2023/03/07 08:32:19;;;;;;;12.25;9.45;;;8.70;64.20;;;;;;4953745;28;20544;-57
2023/03/07 08:34:44;;;;;;;11.07;8.05;;;8.70;64.20;;;;;;4957941;28;20052;-59
2023/03/07 08:37:10;;;;;;;14.10;10.07;;;8.80;64.40;;;;;;4952955;28;20035;-61
2023/03/07 08:39:35;;;;;;;12.50;9.70;;;8.80;64.20;;;;;;4952859;28;20035;-57
2023/03/07 08:42:01;;;;;;;13.13;9.63;;;8.90;64.20;;;;;;4952983;28;20035;-59
2023/03/07 08:44:27;;;;;;;11.07;8.27;;;8.90;64.10;;;;;;4957156;28;20174;-58
2023/03/07 08:46:53;;;;;;;11.35;8.88;;;9.00;64.00;;;;;;4954279;28;20031;-60
2023/03/07 08:49:18;;;;;;;14.93;9.35;;;9.10;64.00;;;;;;4952472;28;20080;-58
2023/03/07 08:51:46;;;;;;;11.90;8.65;;;9.20;64.00;;;;;;4949522;28;20027;-61
2023/03/07 08:54:12;;;;;;;12.80;9.73;;;9.30;64.00;;;;;;4956127;28;20042;-60
2023/03/07 08:56:38;;;;;;;12.00;9.00;;;9.30;63.80;;;;;;4957471;28;20838;-60
2023/03/07 08:59:04;;;;;;;14.55;9.13;;;9.30;63.90;;;;;;4943049;28;20109;-59
2023/03/07 09:01:29;;;;;;;14.07;9.77;;;9.40;64.00;;;;;;4948569;28;20034;-61
2023/03/07 09:03:55;;;;;;;14.27;9.25;;;9.50;63.90;;;;;;4956913;28;20047;-60
2023/03/07 09:06:21;;;;;;;12.65;9.90;;;9.50;63.70;;;;;;4953851;28;20085;-59
2023/03/07 09:08:47;;;;;;;14.18;9.93;;;9.60;63.60;;;;;;4959618;28;20399;-59
2023/03/07 09:11:14;;;;;;;13.23;9.50;;;9.70;63.30;;;;;;4953132;28;20042;-61
2023/03/07 09:13:40;;;;;;;11.30;8.35;;;9.80;63.10;;;;;;4952882;28;20401;-60
2023/03/07 09:16:06;;;;;;;14.05;9.27;;;9.80;63.00;;;;;;4955138;28;20120;-59
2023/03/07 09:18:33;;;;;;;15.73;9.82;;;9.90;62.90;;;;;;4956253;28;20122;-61
2023/03/07 09:21:03;;;;;;;15.45;10.32;;;9.90;62.80;;;;;;4957326;28;20057;-57
2023/03/07 09:23:29;;;;;;;17.00;11.05;;;10.00;62.80;;;;;;4954790;28;20050;-60
2023/03/07 09:25:58;;;;;;;17.83;11.30;;;10.10;62.80;;;;;;4958599;28;20500;-60
2023/03/07 09:28:24;;;;;;;25.48;14.10;;;10.20;62.60;;;;;;4954716;28;20032;-59
2023/03/07 09:30:50;;;;;;;23.90;15.65;;;10.20;62.20;;;;;;4954003;28;20426;-61
2023/03/07 09:33:15;;;;;;;34.05;18.50;;;10.30;62.20;;;;;;4956648;28;20779;-58
2023/03/07 09:35:41;;;;;;;42.38;22.85;;;10.30;62.00;;;;;;4959756;28;20035;-59
2023/03/07 09:38:07;;;;;;;41.17;22.70;;;10.40;61.70;;;;;;4950346;28;20035;-61
2023/03/07 09:40:33;;;;;;;43.63;23.58;;;10.40;61.60;;;;;;4956285;28;20449;-58
2023/03/07 09:43:17;;;;;;;27.98;16.77;;;10.50;61.70;;;;;;4948188;28;20109;-59
2023/03/07 09:45:55;;;;;;;27.38;15.85;;;10.60;61.30;;;;;;4960218;28;20488;-58
2023/03/07 09:48:29;;;;;;;18.75;12.80;;;10.60;61.20;;;;;;4954220;28;20035;-59
2023/03/07 09:51:05;;;;;;;16.65;10.75;;;10.60;60.90;;;;;;4955691;28;20504;-58
2023/03/07 09:53:41;;;;;;;18.27;11.73;;;10.60;60.70;;;;;;4950581;28;20031;-59
2023/03/07 09:56:22;;;;;;;17.83;10.85;;;10.60;60.60;;;;;;4956517;28;20038;-59
2023/03/07 09:58:52;;;;;;;;;;;10.60;60.50;;;;;;4958814;28;21453;-58
2023/03/07 10:01:23;;;;;;;15.35;10.35;;;10.50;60.60;;;;;;4954480;28;19920;-58
2023/03/07 10:04:01;;;;;;;16.40;10.38;;;10.60;60.70;;;;;;4951005;28;20081;-59
2023/03/07 10:06:37;;;;;;;15.80;11.85;;;10.60;60.70;;;;;;4953622;28;20045;-58
2023/03/07 10:09:07;;;;;;;15.23;10.20;;;10.60;60.80;;;;;;4959280;28;20041;-59
2023/03/07 10:12:11;;;;;;;15.98;10.38;;;10.60;60.80;;;;;;4954723;28;20364;-59
2023/03/07 10:15:02;;;;;;;19.85;11.73;;;10.70;60.80;;;;;;4933990;28;20061;-58
2023/03/07 10:17:50;;;;;;;16.67;11.07;;;10.80;60.70;;;;;;4951797;28;20497;-58
2023/03/07 10:20:34;;;;;;;13.93;9.90;;;10.80;60.70;;;;;;4953822;28;20405;-58
2023/03/07 10:23:28;;;;;;;12.35;9.02;;;10.90;60.60;;;;;;4954645;28;20051;-58
2023/03/07 10:26:19;;;;;;;12.93;8.68;;;10.90;60.50;;;;;;4951444;28;20055;-58
2023/03/07 10:28:46;;;;;;;12.23;9.07;;;10.90;60.40;;;;;;4951089;28;20043;-57
2023/03/07 10:31:14;;;;;;;13.05;8.50;;;10.90;60.90;;;;;;4949772;28;20097;-56
2023/03/07 10:33:44;;;;;;;13.52;9.38;;;10.90;60.30;;;;;;4948063;28;20351;-57
2023/03/07 10:36:27;;;;;;;12.68;9.00;;;10.80;60.50;;;;;;4947321;28;20033;-57
2023/03/07 10:39:19;;;;;;;13.25;8.80;;;10.80;60.70;;;;;;4956395;28;21757;-57
2023/03/07 10:41:45;;;;;;;10.63;7.38;;;10.80;60.80;;;;;;4948928;28;20035;-60
2023/03/07 10:44:17;;;;;;;9.13;6.97;;;10.70;61.10;;;;;;4947763;28;20101;-58
2023/03/07 10:46:43;;;;;;;10.57;7.63;;;10.60;61.40;;;;;;4954052;28;20538;-58
2023/03/07 10:49:15;;;;;;;12.52;8.70;;;10.50;61.90;;;;;;4954465;28;20027;-59
2023/03/07 10:52:03;;;;;;;11.82;7.53;;;10.40;62.20;;;;;;4949538;28;20042;-60
2023/03/07 10:54:31;;;;;;;12.10;8.52;;;10.40;62.90;;;;;;4959111;28;20038;-61
2023/03/07 10:57:11;;;;;;;13.40;9.38;;;10.30;63.00;;;;;;4953858;28;20037;-60
2023/03/07 10:59:46;;;;;;;12.50;9.15;;;10.30;63.40;;;;;;4958922;28;20033;-62
2023/03/07 11:02:40;;;;;;;12.90;8.60;;;10.30;63.50;;;;;;4962513;28;20046;-64
2023/03/07 11:05:30;;;;;;;11.13;8.70;;;10.30;63.80;;;;;;4961809;28;20042;-62
2023/03/07 11:07:56;;;;;;;12.68;9.00;;;10.20;64.00;;;;;;4965275;28;20031;-63
2023/03/07 11:10:33;;;;;;;12.27;9.27;;;10.20;64.40;;;;;;4958812;28;20038;-62
2023/03/07 11:13:16;;;;;;;13.82;9.90;;;10.20;64.60;;;;;;4958904;28;20035;-62
2023/03/07 11:15:43;;;;;;;13.48;9.57;;;10.20;64.80;;;;;;4960924;28;20073;-62
2023/03/07 11:18:26;;;;;;;15.30;10.65;;;10.20;65.80;;;;;;4959103;28;20382;-62
2023/03/07 11:20:52;;;;;;;14.20;10.73;;;10.20;65.90;;;;;;4955522;28;20035;-61
2023/03/07 11:23:24;;;;;;;14.88;10.43;;;10.10;65.30;;;;;;4960512;28;20715;-61
2023/03/07 11:25:51;;;;;;;12.63;10.05;;;10.10;65.40;;;;;;4961402;28;20031;-62
2023/03/07 11:28:34;;;;;;;12.70;9.57;;;10.10;65.60;;;;;;4968866;28;20037;-57
2023/03/07 11:31:21;;;;;;;11.45;8.75;;;10.10;65.80;;;;;;4966818;28;20034;-60
2023/03/07 11:34:18;;;;;;;13.60;9.40;;;10.10;66.00;;;;;;4959788;28;20045;-61
2023/03/07 11:36:48;;;;;;;11.13;9.48;;;9.90;66.40;;;;;;4957643;28;20034;-62
2023/03/07 11:39:58;;;;;;;15.25;11.25;;;9.80;66.90;;;;;;4969700;28;20086;-59
2023/03/07 11:42:31;;;;;;;10.80;8.40;;;9.60;67.10;;;;;;4944212;28;20429;-60
2023/03/07 11:45:12;;;;;;;14.95;11.55;;;9.50;67.50;;;;;;4957707;28;20043;-60
2023/03/07 11:47:50;;;;;;;17.67;11.27;;;9.40;67.70;;;;;;4961552;28;20034;-60
2023/03/07 11:50:21;;;;;;;15.63;10.93;;;9.40;68.00;;;;;;4963039;28;20510;-59
2023/03/07 11:53:06;;;;;;;17.40;12.27;;;9.50;68.30;;;;;;4963855;28;20192;-60
2023/03/07 11:55:44;;;;;;;16.05;11.25;;;9.50;68.40;;;;;;4962828;28;20050;-60
2023/03/07 11:58:09;;;;;;;11.55;10.00;;;9.60;69.20;;;;;;4963672;28;20058;-59
2023/03/07 12:01:10;;;;;;;13.95;10.43;;;9.60;68.50;;;;;;4956393;28;20482;-59
2023/03/07 12:03:59;;;;;;;15.82;11.38;;;9.70;68.60;;;;;;4952625;28;20031;-60
2023/03/07 12:06:28;;;;;;;12.18;9.98;;;9.80;68.70;;;;;;4953221;28;20030;-62
2023/03/07 12:09:12;;;;;;;12.88;9.73;;;9.80;68.60;;;;;;4957190;28;20038;-60
2023/03/07 12:11:57;;;;;;;14.07;9.52;;;9.90;68.70;;;;;;4957774;28;20124;-60
2023/03/07 12:15:00;;;;;;;14.02;10.02;;;9.80;68.80;;;;;;4944561;28;20125;-61
2023/03/07 12:17:47;;;;;;;13.10;9.93;;;9.80;68.60;;;;;;4955215;28;20674;-60
2023/03/07 12:20:13;;;;;;;11.63;8.48;;;9.80;68.60;;;;;;4963094;28;20034;-60
2023/03/07 12:22:42;;;;;;;12.38;9.10;;;9.70;68.80;;;;;;4955064;28;20058;-60
2023/03/07 12:25:10;;;;;;;11.75;8.88;;;9.70;69.10;;;;;;4950439;28;20039;-60
2023/03/07 12:28:04;;;;;;;15.70;11.23;;;9.60;69.50;;;;;;4958806;28;20034;-60
2023/03/07 12:30:55;;;;;;;14.35;10.93;;;9.60;69.70;;;;;;4956975;28;20046;-61
2023/03/07 12:33:53;;;;;;;14.48;10.85;;;9.50;69.80;;;;;;4953648;28;20038;-60
2023/03/07 12:36:49;;;;;;;12.57;9.38;;;9.50;69.90;;;;;;4951162;28;20042;-58
2023/03/07 12:39:22;;;;;;;16.45;11.45;;;9.50;70.50;;;;;;4958175;28;20264;-56
2023/03/07 12:42:15;;;;;;;13.65;8.82;;;9.40;70.30;;;;;;4957934;28;20494;-58
2023/03/07 12:44:49;;;;;;;13.18;9.65;;;9.40;70.20;;;;;;4956186;28;20042;-59
2023/03/07 12:47:57;;;;;;;11.77;9.13;;;9.40;70.20;;;;;;4952622;28;20747;-58
2023/03/07 12:50:42;;;;;;;15.90;11.00;;;9.40;70.30;;;;;;4922498;28;20058;-60
2023/03/07 12:53:48;;;;;;;15.85;11.07;;;9.30;70.50;;;;;;4955027;28;20045;-60